createdAt,value
2023-01-23T00:02:12.412Z,24.37
2023-01-23T00:05:03.085Z,24.35
2023-01-23T00:07:52.016Z,24.26
2023-01-23T00:10:40.887Z,24.36
2023-01-23T00:13:29.743Z,24.30
2023-01-23T00:19:10.962Z,24.33
2023-01-23T00:22:02.508Z,24.32
2023-01-23T00:24:51.406Z,24.36
2023-01-23T00:27:40.084Z,24.33
2023-01-23T00:30:29.158Z,24.42
2023-01-23T00:33:17.938Z,24.44
2023-01-23T00:36:07.593Z,24.43
2023-01-23T00:38:57.989Z,24.45
2023-01-23T00:41:47.360Z,24.34
2023-01-23T00:44:36.093Z,24.33
2023-01-23T00:47:24.870Z,24.43
2023-01-23T00:50:14.731Z,24.42
2023-01-23T00:53:03.397Z,24.42
2023-01-23T00:55:53.596Z,24.41
2023-01-23T00:58:44.166Z,24.39
2023-01-23T01:01:33.995Z,24.35
2023-01-23T01:04:22.837Z,24.37
2023-01-23T01:07:11.526Z,24.37
2023-01-23T01:10:00.166Z,24.39
2023-01-23T01:12:51.064Z,24.39
2023-01-23T01:15:40.420Z,24.43
2023-01-23T01:18:29.457Z,24.40
2023-01-23T01:21:19.802Z,24.35
2023-01-23T01:24:08.963Z,24.36
2023-01-23T01:26:57.681Z,24.34
2023-01-23T01:29:47.720Z,24.31
2023-01-23T01:32:38.881Z,24.29
2023-01-23T01:35:27.646Z,24.35
2023-01-23T01:38:16.409Z,24.34
2023-01-23T01:41:05.698Z,24.34
2023-01-23T01:43:57.125Z,24.38
2023-01-23T01:46:48.967Z,24.36
2023-01-23T01:49:37.714Z,24.35
2023-01-23T01:52:27.041Z,24.27
2023-01-23T01:55:15.868Z,24.19
2023-01-23T01:58:04.664Z,24.20
2023-01-23T02:00:53.386Z,24.19
2023-01-23T02:03:45.259Z,24.20
2023-01-23T02:06:34.386Z,24.16
2023-01-23T02:09:27.297Z,24.25
2023-01-23T02:12:15.935Z,24.19
2023-01-23T02:15:05.707Z,24.19
2023-01-23T02:17:54.959Z,24.16
2023-01-23T02:20:45.122Z,24.18
2023-01-23T02:23:40.325Z,24.23
2023-01-23T02:26:33.063Z,24.24
2023-01-23T02:29:21.861Z,24.23
2023-01-23T02:32:10.737Z,24.25
2023-01-23T02:35:02.590Z,24.28
2023-01-23T02:37:54.181Z,24.21
2023-01-23T02:40:44.290Z,24.21
2023-01-23T02:43:37.248Z,24.32
2023-01-23T02:46:26.388Z,24.29
2023-01-23T02:49:15.609Z,24.29
2023-01-23T02:52:04.505Z,24.25
2023-01-23T02:54:53.140Z,24.26
2023-01-23T02:57:41.934Z,24.28
2023-01-23T03:00:31.109Z,24.31
2023-01-23T03:03:19.995Z,24.34
2023-01-23T03:06:08.967Z,24.23
2023-01-23T03:08:59.877Z,24.31
2023-01-23T03:11:48.983Z,24.31
2023-01-23T03:14:39.891Z,24.26
2023-01-23T03:17:30.217Z,24.25
2023-01-23T03:20:20.502Z,24.29
2023-01-23T03:23:09.497Z,24.26
2023-01-23T03:25:59.763Z,24.24
2023-01-23T03:29:06.320Z,24.23
2023-01-23T03:31:55.035Z,24.20
2023-01-23T03:34:45.340Z,24.21
2023-01-23T03:37:34.028Z,24.19
2023-01-23T03:40:42.416Z,24.16
2023-01-23T03:43:32.974Z,24.15
2023-01-23T03:46:21.997Z,24.24
2023-01-23T03:49:10.769Z,24.28
2023-01-23T03:52:01.256Z,24.33
2023-01-23T03:54:50.017Z,24.29
2023-01-23T03:57:38.720Z,24.24
2023-01-23T04:00:27.867Z,24.27
2023-01-23T04:03:16.652Z,24.24
2023-01-23T04:06:05.744Z,24.24
2023-01-23T04:08:57.028Z,24.25
2023-01-23T04:11:45.749Z,24.33
2023-01-23T04:14:37.473Z,24.31
2023-01-23T04:17:26.359Z,24.25
2023-01-23T04:20:15.846Z,24.25
2023-01-23T04:23:04.671Z,24.26
2023-01-23T04:25:55.066Z,24.20
2023-01-23T04:28:43.804Z,24.27
2023-01-23T04:31:36.015Z,24.24
2023-01-23T04:34:24.803Z,24.22
2023-01-23T04:37:13.583Z,24.20
2023-01-23T04:40:02.299Z,24.19
2023-01-23T04:42:52.462Z,24.21
2023-01-23T04:45:41.285Z,24.20
2023-01-23T04:48:30.055Z,24.24
2023-01-23T04:51:18.803Z,24.14
2023-01-23T04:54:07.697Z,24.17
2023-01-23T04:56:56.442Z,24.17
2023-01-23T04:59:46.565Z,24.16
2023-01-23T05:02:35.735Z,24.19
2023-01-23T05:05:24.758Z,24.17
2023-01-23T05:08:13.858Z,24.10
2023-01-23T05:11:02.888Z,24.09
2023-01-23T05:13:51.740Z,24.14
2023-01-23T05:16:41.823Z,24.13
2023-01-23T05:19:30.551Z,24.24
2023-01-23T05:25:09.592Z,24.24
2023-01-23T05:27:58.483Z,24.29
2023-01-23T05:30:47.577Z,24.24
2023-01-23T05:33:37.779Z,24.29
2023-01-23T05:36:26.704Z,24.21
2023-01-23T05:39:15.560Z,24.24
2023-01-23T05:42:04.306Z,24.27
2023-01-23T05:44:53.357Z,24.22
2023-01-23T05:47:42.307Z,24.16
2023-01-23T05:50:34.413Z,24.17
2023-01-23T05:53:23.315Z,24.18
2023-01-23T05:56:14.449Z,24.15
2023-01-23T05:59:03.792Z,24.19
2023-01-23T06:01:52.562Z,24.24
2023-01-23T06:04:41.450Z,24.29
2023-01-23T06:07:31.746Z,24.21
2023-01-23T06:10:20.909Z,24.15
2023-01-23T06:13:09.830Z,24.16
2023-01-23T06:15:58.672Z,24.17
2023-01-23T06:18:47.401Z,24.13
2023-01-23T06:21:36.125Z,24.14
2023-01-23T06:24:26.562Z,24.06
2023-01-23T06:27:15.418Z,24.09
2023-01-23T06:30:04.129Z,24.10
2023-01-23T06:32:52.807Z,24.15
2023-01-23T06:35:41.597Z,24.18
2023-01-23T06:38:30.865Z,24.20
2023-01-23T06:41:21.086Z,24.19
2023-01-23T06:44:09.954Z,24.20
2023-01-23T06:46:58.769Z,24.23
2023-01-23T06:49:47.657Z,24.27
2023-01-23T06:52:36.401Z,24.31
2023-01-23T06:55:25.333Z,24.29
2023-01-23T06:58:15.447Z,24.25
2023-01-23T07:01:10.806Z,24.21
2023-01-23T07:03:59.472Z,24.13
2023-01-23T07:06:48.403Z,24.10
2023-01-23T07:09:37.021Z,24.10
2023-01-23T07:12:26.318Z,24.09
2023-01-23T07:15:16.492Z,24.14
2023-01-23T07:18:05.748Z,24.12
2023-01-23T07:20:54.412Z,24.07
2023-01-23T07:23:43.189Z,24.05
2023-01-23T07:26:31.930Z,24.14
2023-01-23T07:29:20.775Z,24.14
2023-01-23T07:32:11.375Z,24.14
2023-01-23T07:35:00.291Z,24.20
2023-01-23T07:37:49.190Z,24.21
2023-01-23T07:40:39.110Z,24.15
2023-01-23T07:43:28.064Z,24.14
2023-01-23T07:46:16.913Z,24.18
2023-01-23T07:49:07.495Z,24.15
2023-01-23T07:51:56.303Z,24.14
2023-01-23T07:54:45.347Z,24.12
2023-01-23T07:57:34.372Z,24.15
2023-01-23T08:00:28.448Z,24.09
2023-01-23T08:03:18.744Z,24.14
2023-01-23T08:06:09.999Z,24.16
2023-01-23T08:08:58.668Z,24.12
2023-01-23T08:11:47.402Z,24.09
2023-01-23T08:14:36.183Z,24.09
2023-01-23T08:17:24.892Z,24.09
2023-01-23T08:20:14.607Z,24.06
2023-01-23T08:23:04.719Z,24.04
2023-01-23T08:25:55.265Z,24.05
2023-01-23T08:28:44.681Z,24.04
2023-01-23T08:31:33.671Z,24.09
2023-01-23T08:34:24.055Z,24.07
2023-01-23T08:37:12.783Z,24.08
2023-01-23T08:40:02.933Z,24.04
2023-01-23T08:42:51.786Z,24.05
2023-01-23T08:45:40.459Z,24.06
2023-01-23T08:48:34.188Z,24.04
2023-01-23T08:51:23.283Z,23.99
2023-01-23T08:54:11.969Z,24.00
2023-01-23T08:57:02.868Z,24.01
2023-01-23T08:59:51.528Z,24.00
2023-01-23T09:02:40.244Z,24.00
2023-01-23T09:05:29.725Z,23.99
2023-01-23T09:08:18.626Z,24.00
2023-01-23T09:11:10.273Z,23.96
2023-01-23T09:14:00.423Z,23.98
2023-01-23T09:16:49.154Z,23.95
2023-01-23T09:19:37.963Z,23.92
2023-01-23T09:22:26.775Z,23.92
2023-01-23T09:25:15.746Z,23.92
2023-01-23T09:28:05.093Z,23.95
2023-01-23T09:30:55.294Z,23.95
2023-01-23T09:33:44.295Z,23.95
2023-01-23T09:36:42.423Z,23.99
2023-01-23T09:39:31.773Z,24.01
2023-01-23T09:42:23.216Z,24.05
2023-01-23T09:45:14.290Z,24.06
2023-01-23T09:48:17.913Z,24.08
2023-01-23T09:51:14.350Z,24.04
2023-01-23T09:54:17.994Z,24.05
2023-01-23T09:57:14.605Z,24.04
2023-01-23T10:00:07.952Z,24.02
2023-01-23T10:02:57.253Z,24.03
2023-01-23T10:05:54.513Z,24.04
2023-01-23T10:08:53.691Z,24.06
2023-01-23T10:11:50.124Z,24.01
2023-01-23T10:14:53.956Z,24.04
2023-01-23T10:17:46.903Z,24.06
2023-01-23T10:20:51.218Z,24.03
2023-01-23T10:23:48.420Z,24.03
2023-01-23T10:26:41.860Z,24.06
2023-01-23T10:29:32.333Z,24.03
2023-01-23T10:32:26.692Z,24.06
2023-01-23T10:35:19.464Z,24.02
2023-01-23T10:38:16.879Z,24.05
2023-01-23T10:41:21.177Z,24.07
2023-01-23T10:44:17.212Z,24.02
2023-01-23T10:47:17.371Z,24.01
2023-01-23T10:50:07.558Z,24.00
2023-01-23T10:53:08.011Z,24.01
2023-01-23T10:56:00.820Z,23.98
2023-01-23T10:58:49.957Z,24.01
2023-01-23T11:01:42.195Z,24.01
2023-01-23T11:04:33.514Z,24.00
2023-01-23T11:07:23.899Z,23.95
2023-01-23T11:10:20.265Z,23.95
2023-01-23T11:13:27.431Z,23.95
2023-01-23T11:16:17.112Z,23.92
2023-01-23T11:19:14.134Z,23.92
2023-01-23T11:22:03.979Z,23.95
2023-01-23T11:24:52.744Z,24.00
2023-01-23T11:27:41.345Z,23.94
2023-01-23T11:30:43.598Z,23.93
2023-01-23T11:33:41.063Z,23.95
2023-01-23T11:36:46.794Z,23.95
2023-01-23T11:39:42.464Z,23.97
2023-01-23T11:42:31.155Z,23.94
2023-01-23T11:45:33.564Z,23.96
2023-01-23T11:48:36.100Z,23.95
2023-01-23T11:51:29.600Z,23.99
2023-01-23T11:54:37.994Z,24.03
2023-01-23T11:57:35.543Z,24.01
2023-01-23T12:00:31.288Z,24.06
2023-01-23T12:03:55.865Z,24.11
2023-01-23T12:06:58.206Z,24.04
2023-01-23T12:09:53.969Z,24.05
2023-01-23T12:12:53.337Z,24.12
2023-01-23T12:15:46.383Z,24.08
2023-01-23T12:18:40.536Z,24.06
2023-01-23T12:21:35.164Z,24.12
2023-01-23T12:24:36.970Z,24.11
2023-01-23T12:27:30.174Z,24.08
2023-01-23T12:30:42.446Z,24.15
2023-01-23T12:33:43.707Z,24.07
2023-01-23T12:37:08.178Z,24.02
2023-01-23T12:40:10.031Z,24.00
2023-01-23T12:43:02.730Z,24.01
2023-01-23T12:45:54.990Z,23.95
2023-01-23T12:48:47.257Z,23.99
2023-01-23T12:51:39.413Z,23.96
2023-01-23T12:54:34.982Z,23.94
2023-01-23T12:57:52.247Z,23.95
2023-01-23T13:01:07.395Z,23.93
2023-01-23T13:04:12.918Z,23.94
2023-01-23T13:07:10.413Z,23.98
2023-01-23T13:10:47.525Z,23.95
2023-01-23T13:13:37.948Z,23.98
2023-01-23T13:16:30.019Z,23.93
2023-01-23T13:19:43.323Z,23.91
2023-01-23T13:22:33.912Z,23.91
2023-01-23T13:25:22.742Z,23.93
2023-01-23T13:28:44.031Z,23.96
2023-01-23T13:31:47.078Z,23.95
2023-01-23T13:34:40.255Z,23.94
2023-01-23T13:37:51.993Z,24.00
2023-01-23T13:41:03.548Z,23.99
2023-01-23T13:43:55.807Z,23.96
2023-01-23T14:25:40.047Z,24.07
2023-01-23T14:28:29.183Z,24.03
2023-01-23T14:31:24.343Z,24.01
2023-01-23T14:34:18.818Z,24.06
2023-01-23T14:37:12.721Z,24.15
2023-01-23T14:40:11.731Z,24.09
2023-01-23T14:43:03.548Z,24.16
2023-01-23T14:46:00.890Z,24.17
2023-01-23T14:48:53.313Z,24.23
2023-01-23T14:51:42.228Z,24.28
2023-01-23T14:54:34.482Z,24.24
2023-01-23T14:57:24.159Z,24.19
2023-01-23T15:00:19.213Z,24.25
2023-01-23T15:05:59.538Z,24.33
2023-01-23T15:08:49.129Z,24.23
2023-01-23T15:11:39.285Z,24.29
2023-01-23T15:14:30.551Z,24.25
2023-01-23T15:17:21.380Z,24.34
2023-01-23T15:20:31.983Z,24.21
2023-01-23T15:23:31.508Z,24.03
2023-01-23T15:26:34.213Z,23.99
2023-01-23T15:29:24.706Z,23.95
2023-01-23T15:32:26.980Z,23.89
2023-01-23T15:35:18.283Z,23.90
2023-01-23T15:38:09.586Z,23.82
2023-01-23T15:40:59.380Z,23.81
2023-01-23T15:43:48.070Z,23.85
2023-01-23T15:46:38.168Z,23.87
2023-01-23T15:49:26.942Z,23.85
2023-01-23T15:52:20.910Z,23.84
2023-01-23T15:55:12.344Z,23.92
2023-01-23T15:58:02.449Z,23.89
2023-01-23T16:00:51.768Z,23.82
2023-01-23T16:03:42.036Z,23.79
2023-01-23T16:06:30.807Z,23.77
2023-01-23T16:09:25.369Z,23.79
2023-01-23T16:12:16.276Z,23.74
2023-01-23T16:15:08.143Z,23.72
2023-01-23T16:17:57.392Z,23.78
2023-01-23T16:20:47.572Z,23.83
2023-01-23T16:23:47.278Z,23.74
2023-01-23T16:26:43.812Z,23.76
2023-01-23T16:29:34.033Z,23.72
2023-01-23T16:32:23.138Z,23.75
2023-01-23T16:35:13.110Z,23.82
2023-01-23T16:38:03.730Z,23.85
2023-01-23T16:40:53.640Z,23.76
2023-01-23T16:43:42.411Z,23.85
2023-01-23T16:46:31.274Z,23.94
2023-01-23T16:49:20.184Z,23.95
2023-01-23T16:52:08.923Z,23.99
2023-01-23T16:54:59.209Z,24.10
2023-01-23T16:57:48.610Z,24.09
2023-01-23T17:00:37.526Z,24.07
2023-01-23T17:03:29.112Z,24.06
2023-01-23T17:06:18.503Z,24.10
2023-01-23T17:09:07.188Z,24.12
2023-01-23T17:11:58.153Z,24.19
2023-01-23T17:14:48.483Z,24.19
2023-01-23T17:17:37.557Z,24.19
2023-01-23T17:20:28.562Z,24.30
2023-01-23T17:23:17.569Z,24.32
2023-01-23T17:26:06.586Z,24.15
2023-01-23T17:28:56.620Z,24.08
2023-01-23T17:31:45.625Z,24.10
2023-01-23T17:34:49.004Z,24.07
2023-01-23T17:37:38.794Z,23.98
2023-01-23T17:40:28.292Z,23.94
2023-01-23T17:43:18.310Z,23.89
2023-01-23T17:46:08.700Z,23.88
2023-01-23T17:48:58.174Z,23.84
2023-01-23T17:51:46.982Z,23.82
2023-01-23T17:54:37.492Z,23.86
2023-01-23T17:57:26.274Z,23.82
2023-01-23T18:00:18.851Z,23.89
2023-01-23T18:03:10.732Z,23.85
2023-01-23T18:05:59.401Z,23.85
2023-01-23T18:08:48.282Z,23.82
2023-01-23T18:11:37.909Z,23.81
2023-01-23T18:14:33.117Z,23.75
2023-01-23T18:17:29.200Z,23.75
2023-01-23T18:20:21.308Z,23.77
2023-01-23T18:23:13.350Z,23.84
2023-01-23T18:26:11.097Z,23.76
2023-01-23T18:29:05.320Z,23.76
2023-01-23T18:32:10.023Z,23.76
2023-01-23T18:35:03.366Z,23.74
2023-01-23T18:37:57.891Z,23.73
2023-01-23T18:41:00.158Z,23.74
2023-01-23T18:43:52.249Z,23.72
2023-01-23T18:46:41.333Z,23.72
2023-01-23T18:49:33.014Z,23.70
2023-01-23T18:52:25.005Z,23.70
2023-01-23T18:55:25.750Z,23.67
2023-01-23T18:58:30.614Z,23.69
2023-01-23T19:01:24.364Z,23.70
2023-01-23T19:04:15.399Z,23.71
2023-01-23T19:07:04.665Z,23.69
2023-01-23T19:09:53.765Z,23.66
2023-01-23T19:12:48.460Z,23.70
2023-01-23T19:15:42.623Z,23.67
2023-01-23T19:18:43.492Z,23.64
2023-01-23T19:21:33.362Z,23.67
2023-01-23T19:24:22.252Z,23.68
2023-01-23T19:27:17.414Z,23.75
2023-01-23T19:30:08.691Z,23.77
2023-01-23T19:32:57.287Z,23.75
2023-01-23T19:35:46.294Z,23.70
2023-01-23T19:38:34.909Z,23.74
2023-01-23T19:41:24.964Z,23.78
2023-01-23T19:44:14.509Z,23.78
2023-01-23T19:47:06.757Z,23.74
2023-01-23T19:49:55.455Z,23.72
2023-01-23T19:52:45.348Z,23.72
2023-01-23T19:55:35.845Z,23.71
2023-01-23T19:58:24.905Z,23.73
2023-01-23T20:01:23.860Z,23.73
2023-01-23T20:04:17.021Z,23.70
2023-01-23T20:07:05.747Z,23.67
2023-01-23T20:09:54.420Z,23.69
2023-01-23T20:12:44.364Z,23.73
2023-01-23T20:15:33.857Z,23.71
2023-01-23T20:18:23.183Z,23.72
2023-01-23T20:21:13.343Z,23.70
2023-01-23T20:24:02.088Z,23.68
2023-01-23T20:26:50.842Z,23.76
2023-01-23T20:29:39.832Z,23.86
2023-01-23T20:32:28.902Z,23.99
2023-01-23T20:35:17.634Z,24.02
2023-01-23T20:38:10.714Z,24.17
2023-01-23T20:41:04.837Z,24.20
2023-01-23T20:43:56.476Z,24.33
2023-01-23T20:46:45.590Z,24.30
2023-01-23T20:49:34.329Z,24.35
2023-01-23T20:52:43.518Z,24.29
2023-01-23T20:55:33.544Z,24.25
2023-01-23T20:58:42.204Z,24.25
2023-01-23T21:01:53.613Z,24.29
2023-01-23T21:04:45.511Z,24.21
2023-01-23T21:07:34.509Z,24.19
2023-01-23T21:10:24.328Z,24.24
2023-01-23T21:13:15.730Z,24.22
2023-01-23T21:16:09.097Z,24.28
2023-01-23T21:18:57.972Z,24.19
2023-01-23T21:21:46.947Z,24.11
2023-01-23T21:24:36.498Z,24.05
2023-01-23T21:27:26.097Z,23.94
2023-01-23T21:30:18.191Z,23.91
2023-01-23T21:33:07.206Z,23.89
2023-01-23T21:35:56.512Z,23.90
2023-01-23T21:38:45.604Z,23.89
2023-01-23T21:41:34.465Z,23.85
2023-01-23T21:44:23.171Z,23.86
2023-01-23T21:47:15.368Z,23.83
2023-01-23T21:50:04.291Z,23.79
2023-01-23T21:52:53.195Z,23.78
2023-01-23T21:55:41.905Z,23.78
2023-01-23T21:58:30.776Z,23.81
2023-01-23T22:01:33.725Z,23.86
2023-01-23T22:04:24.192Z,23.84
2023-01-23T22:07:13.019Z,23.89
2023-01-23T22:10:01.970Z,23.83
2023-01-23T22:12:53.911Z,23.83
2023-01-23T22:15:42.699Z,23.85
2023-01-23T22:18:31.691Z,23.86
2023-01-23T22:21:21.929Z,23.89
2023-01-23T22:24:10.767Z,23.89
2023-01-23T22:26:59.839Z,23.85
2023-01-23T22:29:48.483Z,23.86
2023-01-23T22:32:37.075Z,23.87
2023-01-23T22:35:25.650Z,23.81
2023-01-23T22:38:16.781Z,23.80
2023-01-23T22:41:07.151Z,23.83
2023-01-23T22:43:55.831Z,23.83
2023-01-23T22:46:44.529Z,23.78
2023-01-23T22:49:33.282Z,23.80
2023-01-23T22:52:22.097Z,23.83
2023-01-23T22:55:12.857Z,23.79
2023-01-23T22:58:01.608Z,23.72
2023-01-23T23:00:53.137Z,23.73
2023-01-23T23:03:42.127Z,23.74
2023-01-23T23:06:33.605Z,23.69
2023-01-23T23:09:22.370Z,23.66
2023-01-23T23:12:13.679Z,23.69
2023-01-23T23:15:02.826Z,23.73
2023-01-23T23:17:51.557Z,23.71
2023-01-23T23:20:40.623Z,23.78
2023-01-23T23:23:29.781Z,23.86
2023-01-23T23:26:18.675Z,23.78
2023-01-23T23:29:09.257Z,23.81
2023-01-23T23:31:58.079Z,23.79
2023-01-23T23:34:47.168Z,23.81
2023-01-23T23:37:36.123Z,23.81
2023-01-23T23:40:24.720Z,23.76
2023-01-23T23:43:13.302Z,23.72
2023-01-23T23:46:05.348Z,23.73
2023-01-23T23:48:54.047Z,23.75
2023-01-23T23:51:46.055Z,23.81
2023-01-23T23:54:34.704Z,23.86
2023-01-23T23:57:23.372Z,23.89
